createdAt,value
2023-01-23T00:01:31.959Z,5.33
2023-01-23T00:03:59.321Z,4.37
2023-01-23T00:06:27.322Z,3.87
2023-01-23T00:08:59.174Z,4.83
2023-01-23T00:11:28.665Z,4.53
2023-01-23T00:13:57.301Z,4.40
2023-01-23T00:16:29.544Z,3.47
2023-01-23T00:18:57.416Z,3.83
2023-01-23T00:21:27.089Z,4.30
2023-01-23T00:23:56.452Z,4.00
2023-01-23T00:26:26.747Z,3.67
2023-01-23T00:28:54.331Z,4.07
2023-01-23T00:31:26.889Z,3.37
2023-01-23T00:33:56.697Z,5.20
2023-01-23T00:36:27.962Z,4.10
2023-01-23T00:38:55.274Z,4.60
2023-01-23T00:41:25.036Z,4.30
2023-01-23T00:43:52.583Z,4.40
2023-01-23T00:46:20.474Z,4.13
2023-01-23T00:48:48.089Z,4.23
2023-01-23T00:51:15.254Z,4.30
2023-01-23T00:53:42.468Z,4.60
2023-01-23T00:56:09.686Z,3.77
2023-01-23T00:58:37.154Z,4.47
2023-01-23T01:01:05.160Z,3.20
2023-01-23T01:03:32.345Z,2.30
2023-01-23T01:06:00.428Z,2.60
2023-01-23T01:08:27.567Z,3.80
2023-01-23T01:10:54.619Z,4.10
2023-01-23T01:13:23.958Z,4.00
2023-01-23T01:15:52.631Z,4.30
2023-01-23T01:18:21.754Z,3.57
2023-01-23T01:20:49.768Z,3.97
2023-01-23T01:23:17.587Z,4.40
2023-01-23T01:25:44.863Z,4.27
2023-01-23T01:28:12.113Z,5.17
2023-01-23T01:30:40.049Z,4.40
2023-01-23T01:33:07.383Z,4.27
2023-01-23T01:35:34.699Z,3.47
2023-01-23T01:38:02.311Z,3.90
2023-01-23T01:40:36.081Z,4.30
2023-01-23T01:43:06.578Z,4.70
2023-01-23T01:46:07.855Z,2.87
2023-01-23T01:49:13.064Z,4.37
2023-01-23T01:51:56.906Z,4.10
2023-01-23T01:54:32.543Z,4.43
2023-01-23T01:57:29.036Z,4.33
2023-01-23T02:00:10.547Z,4.33
2023-01-23T02:02:43.944Z,4.57
2023-01-23T02:05:21.366Z,4.70
2023-01-23T02:08:16.196Z,3.73
2023-01-23T02:10:44.345Z,4.60
2023-01-23T02:13:38.280Z,4.37
2023-01-23T02:16:18.056Z,4.27
2023-01-23T02:18:48.292Z,4.10
2023-01-23T02:21:20.483Z,3.60
2023-01-23T02:24:23.214Z,3.67
2023-01-23T02:26:50.573Z,4.03
2023-01-23T02:29:20.226Z,3.50
2023-01-23T02:31:49.839Z,4.03
2023-01-23T02:34:17.161Z,3.87
2023-01-23T02:36:47.552Z,3.20
2023-01-23T02:39:17.650Z,3.67
2023-01-23T02:41:47.188Z,3.97
2023-01-23T02:44:25.698Z,3.90
2023-01-23T02:46:56.885Z,3.07
2023-01-23T02:49:24.246Z,4.00
2023-01-23T02:51:52.461Z,3.50
2023-01-23T02:54:20.222Z,3.40
2023-01-23T02:56:47.206Z,3.20
2023-01-23T02:59:32.999Z,3.13
2023-01-23T03:02:00.562Z,3.73
2023-01-23T03:04:27.645Z,2.90
2023-01-23T03:06:54.760Z,3.10
2023-01-23T03:09:22.854Z,3.20
2023-01-23T03:11:50.868Z,3.10
2023-01-23T03:14:20.517Z,3.50
2023-01-23T03:16:51.463Z,3.63
2023-01-23T03:19:23.691Z,3.50
2023-01-23T03:21:51.466Z,3.67
2023-01-23T03:24:19.746Z,4.00
2023-01-23T03:26:49.180Z,3.80
2023-01-23T03:29:40.962Z,4.17
2023-01-23T03:32:09.169Z,4.73
2023-01-23T03:34:36.581Z,4.40
2023-01-23T03:37:03.987Z,4.37
2023-01-23T03:39:49.444Z,4.30
2023-01-23T03:42:16.478Z,4.17
2023-01-23T03:44:43.739Z,4.17
2023-01-23T03:47:11.362Z,4.47
2023-01-23T03:49:38.473Z,4.87
2023-01-23T03:52:05.987Z,3.23
2023-01-23T03:54:33.220Z,4.77
2023-01-23T03:57:00.340Z,5.57
2023-01-23T03:59:27.358Z,4.70
2023-01-23T04:01:54.583Z,4.33
2023-01-23T04:04:21.640Z,4.80
2023-01-23T04:06:48.662Z,4.47
2023-01-23T04:09:16.019Z,5.33
2023-01-23T04:11:43.215Z,4.60
2023-01-23T04:14:10.357Z,4.83
2023-01-23T04:16:37.709Z,4.60
2023-01-23T04:19:04.845Z,6.37
2023-01-23T04:21:31.994Z,4.60
2023-01-23T04:23:59.055Z,4.80
2023-01-23T04:26:26.209Z,4.77
2023-01-23T04:28:53.304Z,5.00
2023-01-23T04:31:20.460Z,5.00
2023-01-23T04:33:47.556Z,4.60
2023-01-23T04:36:14.666Z,4.90
2023-01-23T04:38:41.817Z,3.70
2023-01-23T04:41:12.825Z,4.57
2023-01-23T04:43:39.921Z,4.43
2023-01-23T04:46:07.175Z,5.00
2023-01-23T04:48:34.419Z,3.80
2023-01-23T04:51:01.582Z,4.20
2023-01-23T04:53:28.797Z,4.03
2023-01-23T04:55:55.999Z,4.53
2023-01-23T04:58:23.050Z,4.40
2023-01-23T05:00:50.677Z,3.97
2023-01-23T05:03:18.290Z,5.27
2023-01-23T05:05:45.823Z,4.40
2023-01-23T05:08:13.749Z,4.43
2023-01-23T05:10:40.911Z,5.03
2023-01-23T05:13:09.789Z,5.03
2023-01-23T05:15:38.057Z,5.17
2023-01-23T05:18:05.442Z,3.97
2023-01-23T05:20:33.607Z,4.90
2023-01-23T05:23:01.127Z,3.73
2023-01-23T05:25:29.750Z,3.93
2023-01-23T05:27:56.890Z,4.93
2023-01-23T05:30:24.300Z,3.77
2023-01-23T05:32:51.776Z,4.30
2023-01-23T05:35:20.128Z,3.80
2023-01-23T05:37:53.816Z,3.77
2023-01-23T05:40:21.448Z,4.07
2023-01-23T05:42:49.491Z,3.90
2023-01-23T05:45:17.516Z,4.30
2023-01-23T05:47:45.022Z,4.50
2023-01-23T05:50:18.191Z,4.23
2023-01-23T05:52:45.914Z,4.13
2023-01-23T05:55:13.033Z,4.33
2023-01-23T05:57:40.261Z,4.23
2023-01-23T06:00:09.819Z,4.47
2023-01-23T06:02:36.943Z,4.33
2023-01-23T06:05:04.334Z,4.90
2023-01-23T06:07:31.592Z,6.60
2023-01-23T06:09:58.757Z,4.53
2023-01-23T06:12:25.762Z,4.77
2023-01-23T06:14:52.897Z,5.20
2023-01-23T06:17:19.877Z,4.73
2023-01-23T06:19:48.672Z,4.43
2023-01-23T06:22:16.309Z,4.60
2023-01-23T06:24:43.451Z,4.47
2023-01-23T06:27:10.926Z,5.00
2023-01-23T06:29:38.695Z,5.10
2023-01-23T06:32:06.106Z,4.50
2023-01-23T06:34:36.933Z,4.67
2023-01-23T06:37:04.406Z,5.13
2023-01-23T06:39:31.616Z,5.93
2023-01-23T06:41:59.155Z,5.00
2023-01-23T06:44:26.511Z,5.20
2023-01-23T06:46:54.239Z,5.63
2023-01-23T06:49:21.349Z,5.57
2023-01-23T06:51:48.666Z,5.87
2023-01-23T06:54:18.437Z,5.90
2023-01-23T06:56:45.609Z,6.30
2023-01-23T06:59:13.138Z,5.40
2023-01-23T07:01:40.424Z,5.67
2023-01-23T07:04:09.262Z,6.40
2023-01-23T07:06:36.764Z,6.27
2023-01-23T07:09:05.627Z,6.53
2023-01-23T07:11:33.813Z,6.60
2023-01-23T07:14:03.880Z,6.00
2023-01-23T07:16:31.111Z,6.87
2023-01-23T07:19:02.718Z,6.10
2023-01-23T07:21:32.653Z,5.47
2023-01-23T07:23:59.889Z,5.50
2023-01-23T07:26:27.071Z,6.23
2023-01-23T07:28:56.617Z,4.97
2023-01-23T07:31:26.215Z,5.63
2023-01-23T07:33:53.393Z,5.27
2023-01-23T07:36:20.658Z,4.83
2023-01-23T07:38:47.681Z,5.10
2023-01-23T07:41:15.307Z,4.37
2023-01-23T07:43:42.651Z,5.03
2023-01-23T07:46:10.089Z,4.90
2023-01-23T07:48:38.187Z,4.70
2023-01-23T07:51:06.415Z,4.27
2023-01-23T07:53:33.510Z,4.43
2023-01-23T07:56:03.940Z,5.03
2023-01-23T07:58:31.045Z,5.78
2023-01-23T08:00:58.610Z,4.67
2023-01-23T08:03:29.178Z,4.63
2023-01-23T08:05:56.413Z,4.57
2023-01-23T08:08:23.966Z,6.30
2023-01-23T08:10:51.070Z,5.10
2023-01-23T08:13:18.412Z,5.50
2023-01-23T08:15:47.847Z,6.60
2023-01-23T08:18:14.983Z,5.27
2023-01-23T08:20:43.885Z,5.50
2023-01-23T08:23:11.309Z,5.00
2023-01-23T08:25:38.995Z,4.57
2023-01-23T08:28:06.281Z,5.37
2023-01-23T08:30:33.692Z,5.07
2023-01-23T08:33:00.760Z,5.23
2023-01-23T08:35:27.940Z,4.77
2023-01-23T08:37:54.981Z,4.77
2023-01-23T08:40:22.364Z,4.73
2023-01-23T08:42:49.763Z,4.90
2023-01-23T08:45:16.952Z,5.23
2023-01-23T08:47:43.958Z,4.60
2023-01-23T08:50:11.888Z,5.40
2023-01-23T08:52:38.934Z,5.10
2023-01-23T08:55:06.708Z,4.87
2023-01-23T08:57:34.014Z,5.13
2023-01-23T09:00:04.793Z,4.60
2023-01-23T09:02:31.942Z,5.00
2023-01-23T09:04:59.234Z,4.70
2023-01-23T09:07:26.329Z,5.07
2023-01-23T09:09:55.174Z,5.13
2023-01-23T09:12:22.363Z,4.83
2023-01-23T09:14:49.483Z,5.13
2023-01-23T09:17:16.567Z,4.33
2023-01-23T09:19:43.671Z,4.63
2023-01-23T09:22:12.187Z,4.80
2023-01-23T09:24:39.216Z,4.10
2023-01-23T09:27:06.450Z,3.93
2023-01-23T09:29:33.606Z,4.47
2023-01-23T09:32:00.853Z,4.00
2023-01-23T09:34:29.479Z,3.80
2023-01-23T09:36:56.679Z,6.07
2023-01-23T09:39:23.777Z,4.57
2023-01-23T09:41:50.938Z,4.87
2023-01-23T09:44:37.181Z,4.40
2023-01-23T09:47:25.365Z,4.93
2023-01-23T09:50:00.881Z,4.87
2023-01-23T09:52:54.533Z,4.43
2023-01-23T09:55:33.567Z,4.67
2023-01-23T09:58:03.733Z,4.30
2023-01-23T10:00:33.836Z,3.57
2023-01-23T10:03:03.548Z,4.03
2023-01-23T10:06:04.347Z,3.40
2023-01-23T10:09:01.367Z,3.30
2023-01-23T10:11:33.904Z,4.20
2023-01-23T10:14:38.829Z,4.10
2023-01-23T10:17:37.904Z,3.53
2023-01-23T10:20:28.406Z,4.50
2023-01-23T10:23:01.596Z,3.70
2023-01-23T10:25:33.170Z,5.07
2023-01-23T10:28:25.065Z,3.57
2023-01-23T10:30:58.875Z,4.00
2023-01-23T10:33:57.433Z,4.33
2023-01-23T10:36:56.769Z,5.30
2023-01-23T10:39:31.793Z,4.13
2023-01-23T10:42:02.435Z,4.40
2023-01-23T10:44:30.505Z,4.03
2023-01-23T10:47:02.570Z,3.90
2023-01-23T10:49:45.751Z,5.07
2023-01-23T10:52:24.964Z,5.30
2023-01-23T10:54:52.352Z,5.60
2023-01-23T10:57:24.978Z,4.70
2023-01-23T11:00:29.505Z,4.23
2023-01-23T11:02:57.281Z,5.47
2023-01-23T11:05:52.406Z,6.43
2023-01-23T11:08:36.835Z,4.43
2023-01-23T11:11:23.925Z,4.20
2023-01-23T11:14:06.457Z,4.97
2023-01-23T11:16:33.823Z,4.37
2023-01-23T11:19:10.239Z,4.33
2023-01-23T11:22:02.714Z,4.23
2023-01-23T11:24:41.240Z,4.80
2023-01-23T11:27:15.008Z,4.73
2023-01-23T11:29:48.411Z,4.43
2023-01-23T11:32:17.820Z,5.43
2023-01-23T11:34:50.363Z,4.30
2023-01-23T11:37:21.232Z,4.03
2023-01-23T11:39:56.595Z,4.57
2023-01-23T11:42:28.536Z,4.93
2023-01-23T11:44:59.789Z,3.93
2023-01-23T11:48:13.459Z,5.43
2023-01-23T11:50:54.794Z,4.67
2023-01-23T11:53:51.269Z,4.43
2023-01-23T11:56:26.018Z,4.87
2023-01-23T11:59:36.119Z,4.13
2023-01-23T12:02:21.980Z,4.27
2023-01-23T12:05:15.915Z,4.20
2023-01-23T12:08:24.540Z,4.13
2023-01-23T12:11:12.341Z,4.93
2023-01-23T12:14:08.654Z,4.67
2023-01-23T12:16:48.565Z,4.33
2023-01-23T12:19:24.969Z,4.97
2023-01-23T12:22:18.138Z,4.77
2023-01-23T12:25:09.853Z,4.67
2023-01-23T12:27:45.767Z,4.33
2023-01-23T12:30:28.650Z,4.70
2023-01-23T12:33:14.736Z,4.23
2023-01-23T12:35:57.400Z,3.80
2023-01-23T12:38:42.787Z,4.40
2023-01-23T12:41:52.408Z,4.90
2023-01-23T12:44:38.421Z,3.30
2023-01-23T12:47:13.716Z,3.87
2023-01-23T12:49:58.931Z,3.50
2023-01-23T12:52:36.224Z,4.07
2023-01-23T12:55:30.647Z,4.80
2023-01-23T12:58:07.945Z,3.80
2023-01-23T13:00:58.795Z,4.53
2023-01-23T13:03:56.701Z,3.50
2023-01-23T13:06:26.932Z,4.93
2023-01-23T13:09:12.513Z,3.83
2023-01-23T13:11:51.032Z,3.80
2023-01-23T13:14:22.244Z,4.90
2023-01-23T13:16:53.163Z,3.90
2023-01-23T13:19:42.597Z,4.00
2023-01-23T13:22:27.731Z,3.80
2023-01-23T13:25:17.468Z,3.17
2023-01-23T13:27:50.666Z,3.43
2023-01-23T13:30:26.605Z,3.93
2023-01-23T13:33:01.619Z,3.93
2023-01-23T13:35:56.588Z,3.83
2023-01-23T13:38:29.790Z,3.83
2023-01-23T13:41:05.560Z,3.77
2023-01-23T13:44:00.934Z,3.30
2023-01-23T14:22:07.000Z,4.17
2023-01-23T14:24:55.170Z,4.13
2023-01-23T14:27:52.195Z,4.37
2023-01-23T14:30:28.045Z,4.60
2023-01-23T14:32:59.612Z,4.57
2023-01-23T14:35:32.816Z,4.50
2023-01-23T14:38:04.877Z,4.03
2023-01-23T14:40:46.719Z,3.93
2023-01-23T14:43:22.908Z,3.83
2023-01-23T14:46:16.756Z,4.47
2023-01-23T14:48:52.123Z,4.40
2023-01-23T14:51:23.688Z,4.37
2023-01-23T14:53:56.128Z,4.50
2023-01-23T14:56:28.342Z,3.73
2023-01-23T14:58:59.079Z,3.70
2023-01-23T15:01:27.493Z,3.90
2023-01-23T15:04:06.140Z,4.57
2023-01-23T15:06:36.304Z,4.63
2023-01-23T15:09:16.777Z,4.17
2023-01-23T15:11:45.056Z,4.17
2023-01-23T15:14:35.994Z,4.37
2023-01-23T15:17:06.436Z,4.60
2023-01-23T15:19:36.941Z,4.93
2023-01-23T15:22:28.389Z,4.97
2023-01-23T15:24:56.533Z,5.07
2023-01-23T15:27:32.469Z,4.73
2023-01-23T15:30:30.330Z,4.77
2023-01-23T15:32:58.439Z,5.63
2023-01-23T15:35:26.119Z,4.60
2023-01-23T15:37:56.299Z,4.83
2023-01-23T15:40:27.969Z,4.93
2023-01-23T15:43:03.128Z,4.70
2023-01-23T15:45:30.465Z,5.80
2023-01-23T15:47:57.602Z,5.40
2023-01-23T15:50:27.050Z,5.07
2023-01-23T15:52:56.184Z,5.03
2023-01-23T15:55:26.788Z,4.83
2023-01-23T15:57:58.113Z,5.30
2023-01-23T16:00:28.289Z,5.40
2023-01-23T16:02:57.941Z,5.23
2023-01-23T16:05:33.552Z,4.70
2023-01-23T16:08:02.716Z,4.93
2023-01-23T16:10:33.793Z,5.27
2023-01-23T16:13:01.342Z,5.27
2023-01-23T16:15:33.771Z,4.63
2023-01-23T16:18:03.130Z,4.70
2023-01-23T16:20:38.723Z,3.50
2023-01-23T16:23:15.117Z,4.27
2023-01-23T16:25:45.784Z,4.87
2023-01-23T16:28:19.100Z,4.40
2023-01-23T16:30:48.827Z,4.90
2023-01-23T16:33:16.630Z,4.97
2023-01-23T16:35:44.539Z,4.23
2023-01-23T16:38:27.486Z,4.20
2023-01-23T16:40:56.929Z,4.43
2023-01-23T16:43:24.227Z,3.77
2023-01-23T16:45:54.382Z,4.43
2023-01-23T16:48:28.337Z,4.60
2023-01-23T16:51:08.494Z,4.50
2023-01-23T16:53:42.818Z,4.73
2023-01-23T16:56:23.879Z,4.60
2023-01-23T16:58:51.405Z,5.50
2023-01-23T17:01:24.737Z,4.90
2023-01-23T17:04:06.194Z,4.63
2023-01-23T17:06:34.079Z,4.40
2023-01-23T17:09:02.540Z,4.47
2023-01-23T17:11:40.258Z,4.67
2023-01-23T17:14:16.433Z,4.77
2023-01-23T17:16:52.571Z,4.97
2023-01-23T17:20:01.875Z,5.63
2023-01-23T17:22:41.698Z,4.63
2023-01-23T17:26:00.493Z,6.07
2023-01-23T17:28:31.482Z,6.70
2023-01-23T17:31:19.465Z,5.23
2023-01-23T17:34:00.487Z,5.37
2023-01-23T17:43:03.676Z,4.93
2023-01-23T17:45:37.211Z,4.87
2023-01-23T17:48:14.071Z,5.03
2023-01-23T17:50:56.514Z,5.27
2023-01-23T17:54:32.969Z,5.27
2023-01-23T17:57:07.893Z,5.50
2023-01-23T18:02:52.365Z,4.57
2023-01-23T18:06:00.456Z,4.47
2023-01-23T18:08:14.950Z,5.50
2023-01-23T18:10:48.040Z,5.47
2023-01-23T18:13:43.824Z,4.57
2023-01-23T18:16:33.142Z,5.80
2023-01-23T18:19:18.394Z,4.87
2023-01-23T18:21:57.285Z,5.80
2023-01-23T18:24:32.197Z,5.13
2023-01-23T18:27:00.957Z,5.00
2023-01-23T18:29:50.064Z,4.77
2023-01-23T18:32:42.459Z,4.80
2023-01-23T18:35:30.799Z,5.07
2023-01-23T18:38:08.869Z,5.17
2023-01-23T18:41:03.103Z,5.53
2023-01-23T18:43:40.274Z,4.93
2023-01-23T18:46:34.059Z,5.40
2023-01-23T18:49:01.365Z,5.13
2023-01-23T18:51:49.494Z,4.93
2023-01-23T18:54:50.679Z,5.03
2023-01-23T18:57:53.149Z,4.77
2023-01-23T19:00:48.082Z,4.73
2023-01-23T19:03:19.055Z,5.20
2023-01-23T19:05:46.925Z,6.13
2023-01-23T19:08:31.019Z,5.20
2023-01-23T19:11:08.241Z,6.10
2023-01-23T19:13:54.802Z,6.10
2023-01-23T19:16:38.188Z,5.43
2023-01-23T19:19:18.505Z,4.97
2023-01-23T19:21:47.687Z,4.63
2023-01-23T19:24:19.093Z,4.70
2023-01-23T19:27:43.410Z,4.23
2023-01-23T19:39:21.472Z,4.87
2023-01-23T19:42:52.423Z,5.57
2023-01-23T19:46:10.446Z,5.50
2023-01-23T19:51:48.505Z,5.97
2023-01-23T19:54:33.485Z,6.47
2023-01-23T19:57:05.981Z,5.67
2023-01-23T20:07:58.840Z,5.50
2023-01-23T20:12:00.957Z,5.60
2023-01-23T20:13:24.556Z,5.53
2023-01-23T20:16:19.283Z,5.43
2023-01-23T20:19:20.339Z,3.97
2023-01-23T20:22:34.217Z,5.07
2023-01-23T20:25:33.688Z,5.47
2023-01-23T20:28:35.947Z,5.70
2023-01-23T20:37:18.384Z,5.30
2023-01-23T20:40:14.373Z,5.00
2023-01-23T20:42:54.384Z,5.20
2023-01-23T20:45:23.918Z,5.43
2023-01-23T20:47:53.511Z,5.80
2023-01-23T20:50:21.121Z,5.60
2023-01-23T20:53:07.197Z,5.00
2023-01-23T20:55:34.260Z,5.90
2023-01-23T20:58:20.781Z,5.70
2023-01-23T21:00:47.851Z,4.77
2023-01-23T21:03:14.977Z,4.93
2023-01-23T21:05:42.099Z,5.43
2023-01-23T21:08:09.225Z,4.97
2023-01-23T21:10:36.341Z,5.87
2023-01-23T21:13:03.679Z,5.60
2023-01-23T21:15:33.135Z,4.70
2023-01-23T21:18:00.927Z,4.70
2023-01-23T21:20:28.335Z,4.90
2023-01-23T21:22:55.332Z,4.93
2023-01-23T21:25:23.010Z,4.50
2023-01-23T21:27:50.513Z,4.97
2023-01-23T21:30:18.492Z,4.70
2023-01-23T21:32:45.637Z,4.97
2023-01-23T21:35:16.142Z,4.67
2023-01-23T21:37:43.473Z,4.80
2023-01-23T21:40:11.125Z,4.80
2023-01-23T21:42:38.186Z,4.80
2023-01-23T21:45:05.580Z,4.87
2023-01-23T21:47:32.690Z,4.50
2023-01-23T21:49:59.967Z,3.87
2023-01-23T21:52:28.199Z,3.97
2023-01-23T21:54:57.657Z,4.37
2023-01-23T21:57:25.009Z,5.83
2023-01-23T22:00:12.354Z,4.97
2023-01-23T22:02:41.333Z,5.00
2023-01-23T22:05:08.762Z,4.80
2023-01-23T22:07:35.797Z,4.97
2023-01-23T22:10:03.287Z,4.20
2023-01-23T22:12:30.374Z,4.13
2023-01-23T22:14:57.391Z,4.60
2023-01-23T22:17:24.788Z,5.43
2023-01-23T22:19:51.747Z,4.40
2023-01-23T22:22:20.298Z,4.57
2023-01-23T22:24:47.491Z,4.37
2023-01-23T22:27:14.673Z,4.30
2023-01-23T22:29:41.684Z,4.20
2023-01-23T22:32:08.948Z,4.03
2023-01-23T22:34:36.006Z,4.33
2023-01-23T22:37:03.058Z,3.83
2023-01-23T22:39:31.334Z,4.27
2023-01-23T22:41:58.621Z,3.93
2023-01-23T22:44:26.353Z,4.20
2023-01-23T22:46:53.681Z,4.40
2023-01-23T22:49:23.833Z,4.20
2023-01-23T22:51:51.699Z,4.37
2023-01-23T22:54:18.781Z,5.37
2023-01-23T22:56:45.827Z,4.10
2023-01-23T22:59:13.037Z,3.53
2023-01-23T23:01:40.182Z,4.40
2023-01-23T23:04:07.326Z,4.80
2023-01-23T23:06:34.508Z,4.30
2023-01-23T23:09:01.733Z,4.47
2023-01-23T23:11:29.219Z,4.20
2023-01-23T23:13:57.628Z,4.07
2023-01-23T23:16:28.441Z,5.20
2023-01-23T23:18:57.430Z,5.47
2023-01-23T23:21:28.481Z,4.17
2023-01-23T23:23:58.222Z,4.07
2023-01-23T23:26:27.342Z,3.90
2023-01-23T23:28:55.362Z,3.70
2023-01-23T23:31:23.037Z,3.70
2023-01-23T23:33:50.340Z,4.00
2023-01-23T23:36:17.479Z,4.20
2023-01-23T23:38:44.897Z,3.57
2023-01-23T23:41:14.539Z,3.53
2023-01-23T23:43:42.802Z,3.30
2023-01-23T23:46:11.134Z,3.77
2023-01-23T23:48:39.427Z,3.03
2023-01-23T23:51:08.844Z,3.90
2023-01-23T23:53:36.450Z,3.50
2023-01-23T23:56:04.236Z,4.07
2023-01-23T23:58:31.718Z,4.17
